createdAt,value
2023-02-27T00:01:22.083Z,75.64
2023-02-27T00:04:25.276Z,76.32
2023-02-27T00:07:28.929Z,76.73
2023-02-27T00:10:32.103Z,76.99
2023-02-27T00:13:35.738Z,76.90
2023-02-27T00:16:39.177Z,77.12
2023-02-27T00:19:42.096Z,77.15
2023-02-27T00:22:45.816Z,76.67
2023-02-27T00:25:48.782Z,76.40
2023-02-27T00:28:52.250Z,76.16
2023-02-27T00:31:56.413Z,75.98
2023-02-27T00:35:01.807Z,75.95
2023-02-27T00:38:05.059Z,77.03
2023-02-27T00:41:09.405Z,77.01
2023-02-27T00:44:12.861Z,76.57
2023-02-27T00:47:16.141Z,75.63
2023-02-27T00:50:19.281Z,75.29
2023-02-27T00:53:23.043Z,77.19
2023-02-27T00:56:26.056Z,77.18
2023-02-27T00:59:29.218Z,77.97
2023-02-27T01:02:32.223Z,77.96
2023-02-27T01:05:35.743Z,78.20
2023-02-27T01:08:38.758Z,78.18
2023-02-27T01:11:42.014Z,78.48
2023-02-27T01:14:45.153Z,79.17
2023-02-27T01:17:49.924Z,79.90
2023-02-27T01:20:55.538Z,80.21
2023-02-27T01:23:58.847Z,80.61
2023-02-27T01:27:03.004Z,80.34
2023-02-27T01:30:07.141Z,80.61
2023-02-27T01:33:10.446Z,80.50
2023-02-27T01:36:16.272Z,80.44
2023-02-27T01:39:19.171Z,80.83
2023-02-27T01:42:25.184Z,80.59
2023-02-27T01:45:34.730Z,80.26
2023-02-27T01:48:39.543Z,80.90
2023-02-27T01:51:48.797Z,81.40
2023-02-27T01:54:52.895Z,81.25
2023-02-27T01:57:56.457Z,81.34
2023-02-27T02:01:00.201Z,81.64
2023-02-27T02:04:14.377Z,81.68
2023-02-27T02:07:20.047Z,81.66
2023-02-27T02:10:23.286Z,81.76
2023-02-27T02:13:27.793Z,81.85
2023-02-27T02:16:54.767Z,82.09
2023-02-27T02:20:22.564Z,82.18
2023-02-27T02:23:47.229Z,82.16
2023-02-27T02:27:27.008Z,82.31
2023-02-27T02:30:38.833Z,82.68
2023-02-27T02:34:00.457Z,82.71
2023-02-27T02:37:31.215Z,82.66
2023-02-27T02:40:48.976Z,82.75
2023-02-27T02:44:16.612Z,82.75
2023-02-27T02:47:44.575Z,83.02
2023-02-27T02:51:18.924Z,82.92
2023-02-27T02:54:43.662Z,83.08
2023-02-27T02:58:02.198Z,81.71
2023-02-27T03:01:10.256Z,82.00
2023-02-27T03:04:18.883Z,82.61
2023-02-27T03:07:45.905Z,82.79
2023-02-27T03:11:03.990Z,82.63
2023-02-27T03:14:25.081Z,82.77
2023-02-27T03:17:39.368Z,83.06
2023-02-27T03:20:45.960Z,82.93
2023-02-27T03:23:50.457Z,82.70
2023-02-27T03:26:57.300Z,82.83
2023-02-27T03:30:08.976Z,82.54
2023-02-27T03:33:13.873Z,82.96
2023-02-27T03:36:17.752Z,83.35
2023-02-27T03:39:25.452Z,83.28
2023-02-27T03:42:49.639Z,83.60
2023-02-27T03:46:09.727Z,83.56
2023-02-27T03:49:12.900Z,83.84
2023-02-27T03:52:16.167Z,84.21
2023-02-27T03:55:25.892Z,84.62
2023-02-27T03:58:30.231Z,84.48
2023-02-27T04:01:34.158Z,84.90
2023-02-27T04:04:37.494Z,84.89
2023-02-27T04:08:13.167Z,84.86
2023-02-27T04:11:28.661Z,84.86
2023-02-27T04:15:06.729Z,84.87
2023-02-27T04:18:22.440Z,84.96
2023-02-27T04:21:45.308Z,85.00
2023-02-27T04:25:03.182Z,84.98
2023-02-27T04:28:12.271Z,85.18
2023-02-27T04:31:42.787Z,85.12
2023-02-27T04:34:49.744Z,85.32
2023-02-27T04:38:28.348Z,85.40
2023-02-27T04:41:57.713Z,85.42
2023-02-27T04:45:06.940Z,85.41
2023-02-27T04:48:23.647Z,85.75
2023-02-27T04:51:32.431Z,85.37
2023-02-27T04:54:46.106Z,84.97
2023-02-27T04:57:58.917Z,84.90
2023-02-27T05:01:06.372Z,84.78
2023-02-27T05:04:12.656Z,84.71
2023-02-27T05:07:19.369Z,84.80
2023-02-27T05:10:33.601Z,84.94
2023-02-27T05:13:42.672Z,84.29
2023-02-27T05:16:51.099Z,84.06
2023-02-27T05:19:54.158Z,84.11
2023-02-27T05:23:01.360Z,84.28
2023-02-27T05:26:31.965Z,83.91
2023-02-27T05:30:01.635Z,83.81
2023-02-27T05:33:18.886Z,83.52
2023-02-27T05:36:32.891Z,83.78
2023-02-27T05:39:37.476Z,83.60
2023-02-27T05:42:45.514Z,83.21
2023-02-27T05:45:51.205Z,84.05
2023-02-27T05:49:03.494Z,83.85
2023-02-27T05:52:10.738Z,83.66
2023-02-27T05:55:26.757Z,83.50
2023-02-27T05:58:36.636Z,83.30
2023-02-27T06:01:39.938Z,83.44
2023-02-27T06:04:43.234Z,83.23
2023-02-27T06:07:46.180Z,83.74
2023-02-27T06:10:52.128Z,83.12
2023-02-27T06:13:55.263Z,83.02
2023-02-27T06:16:58.540Z,82.50
2023-02-27T06:20:01.454Z,80.22
2023-02-27T06:23:06.760Z,79.23
2023-02-27T06:26:14.321Z,80.40
2023-02-27T06:29:17.676Z,80.50
2023-02-27T06:32:25.278Z,79.95
2023-02-27T06:35:29.595Z,79.85
2023-02-27T06:38:34.152Z,79.08
2023-02-27T06:41:37.399Z,78.98
2023-02-27T06:44:40.741Z,78.55
2023-02-27T06:47:44.702Z,78.65
2023-02-27T06:50:54.392Z,77.91
2023-02-27T06:53:58.359Z,77.71
2023-02-27T06:57:01.584Z,78.45
2023-02-27T07:00:07.277Z,78.12
2023-02-27T07:03:10.273Z,78.37
2023-02-27T07:06:14.040Z,77.99
2023-02-27T07:09:17.017Z,78.05
2023-02-27T07:12:20.266Z,77.57
2023-02-27T07:15:23.261Z,77.51
2023-02-27T07:18:26.496Z,77.59
2023-02-27T07:21:29.493Z,77.02
2023-02-27T07:24:32.771Z,76.85
2023-02-27T07:27:35.776Z,77.03
2023-02-27T07:30:39.290Z,77.29
2023-02-27T07:33:44.585Z,76.31
2023-02-27T07:36:50.575Z,75.99
2023-02-27T07:39:53.532Z,76.48
2023-02-27T07:42:56.968Z,76.06
2023-02-27T07:46:00.009Z,75.62
2023-02-27T07:49:04.972Z,75.71
2023-02-27T07:52:08.494Z,74.33
2023-02-27T07:55:13.587Z,74.24
2023-02-27T07:58:17.739Z,73.11
2023-02-27T08:01:21.092Z,70.98
2023-02-27T08:04:24.445Z,70.48
2023-02-27T08:07:27.515Z,70.47
2023-02-27T08:10:30.842Z,71.86
2023-02-27T08:14:00.025Z,72.50
2023-02-27T08:16:58.143Z,70.84
2023-02-27T08:20:01.946Z,70.50
2023-02-27T08:23:05.227Z,70.22
2023-02-27T08:26:08.523Z,68.04
2023-02-27T08:29:11.698Z,68.53
2023-02-27T08:32:14.917Z,69.03
2023-02-27T08:35:18.253Z,67.12
2023-02-27T08:38:21.332Z,66.32
2023-02-27T08:41:24.827Z,65.91
2023-02-27T08:44:27.976Z,67.74
2023-02-27T08:47:31.759Z,65.73
2023-02-27T08:50:34.677Z,66.45
2023-02-27T08:53:37.998Z,67.04
2023-02-27T08:56:40.982Z,66.30
2023-02-27T08:59:44.353Z,66.92
2023-02-27T09:02:47.413Z,67.85
2023-02-27T09:05:51.440Z,66.02
2023-02-27T09:08:54.477Z,66.75
2023-02-27T09:11:57.797Z,66.80
2023-02-27T09:15:01.076Z,66.10
2023-02-27T09:18:07.056Z,65.71
2023-02-27T09:21:10.172Z,64.79
2023-02-27T09:24:20.467Z,64.58
2023-02-27T09:27:24.118Z,65.05
2023-02-27T09:30:27.929Z,63.70
2023-02-27T09:33:31.577Z,63.57
2023-02-27T09:36:35.143Z,63.75
2023-02-27T09:39:38.112Z,63.32
2023-02-27T09:42:45.629Z,63.06
2023-02-27T09:45:54.504Z,63.26
2023-02-27T09:48:59.621Z,63.87
2023-02-27T09:52:02.887Z,64.21
2023-02-27T09:55:13.484Z,63.03
2023-02-27T09:58:41.414Z,62.18
2023-02-27T10:02:07.162Z,60.68
2023-02-27T10:05:16.552Z,60.13
2023-02-27T10:08:28.271Z,61.23
2023-02-27T10:11:51.663Z,57.83
2023-02-27T10:15:03.168Z,55.17
2023-02-27T10:18:25.583Z,54.96
2023-02-27T10:21:37.513Z,53.28
2023-02-27T10:24:45.348Z,52.27
2023-02-27T10:27:51.305Z,51.31
2023-02-27T10:30:59.640Z,48.91
2023-02-27T10:34:02.751Z,50.09
2023-02-27T10:37:07.995Z,48.27
2023-02-27T10:40:14.469Z,47.73
2023-02-27T10:43:19.907Z,47.24
2023-02-27T10:46:28.723Z,46.53
2023-02-27T10:49:33.622Z,45.34
2023-02-27T10:52:49.162Z,44.03
2023-02-27T10:56:02.191Z,43.00
2023-02-27T10:59:18.192Z,44.20
2023-02-27T11:02:27.093Z,44.83
2023-02-27T11:05:32.872Z,44.33
2023-02-27T11:08:36.365Z,47.63
2023-02-27T11:11:40.000Z,48.77
2023-02-27T11:14:58.371Z,49.49
2023-02-27T11:18:29.447Z,50.82
2023-02-27T11:21:32.688Z,49.57
2023-02-27T11:24:35.791Z,49.86
2023-02-27T11:27:39.418Z,52.24
2023-02-27T11:30:44.192Z,51.39
2023-02-27T11:33:54.931Z,52.23
2023-02-27T11:37:04.078Z,51.15
2023-02-27T11:40:10.740Z,49.13
2023-02-27T11:43:21.455Z,50.02
2023-02-27T11:46:46.369Z,50.58
2023-02-27T11:50:00.843Z,52.35
2023-02-27T11:53:22.855Z,53.42
2023-02-27T11:56:50.890Z,51.02
2023-02-27T12:00:06.701Z,51.15
2023-02-27T12:03:28.983Z,47.92
2023-02-27T12:06:57.696Z,52.30
2023-02-27T12:10:03.386Z,51.93
2023-02-27T12:13:17.997Z,50.93
2023-02-27T12:16:47.149Z,50.79
2023-02-27T12:19:53.685Z,51.19
2023-02-27T12:22:56.733Z,51.42
2023-02-27T12:26:24.042Z,51.72
2023-02-27T12:29:35.701Z,49.27
2023-02-27T12:32:55.126Z,48.45
2023-02-27T12:36:00.578Z,47.61
2023-02-27T12:39:05.196Z,45.56
2023-02-27T12:42:26.956Z,45.23
2023-02-27T12:45:46.366Z,45.95
2023-02-27T12:49:16.051Z,42.63
2023-02-27T12:52:44.326Z,42.92
2023-02-27T12:56:12.322Z,43.89
2023-02-27T13:00:01.001Z,44.53
2023-02-27T13:03:17.889Z,40.57
2023-02-27T13:06:39.914Z,37.65
2023-02-27T13:09:52.186Z,36.92
2023-02-27T13:13:00.879Z,36.29
2023-02-27T13:16:09.897Z,34.52
2023-02-27T13:19:16.137Z,37.31
2023-02-27T13:22:42.257Z,35.85
2023-02-27T13:25:51.092Z,34.00
2023-02-27T13:28:54.602Z,35.33
2023-02-27T13:32:04.904Z,35.51
2023-02-27T13:35:17.966Z,36.15
2023-02-27T13:38:50.426Z,35.60
2023-02-27T13:41:53.423Z,34.65
2023-02-27T13:45:06.402Z,33.47
2023-02-27T13:48:46.357Z,35.84
2023-02-27T13:51:51.229Z,33.81
2023-02-27T13:54:57.264Z,30.98
2023-02-27T13:58:04.425Z,28.32
2023-02-27T14:01:17.220Z,31.93
2023-02-27T14:04:21.276Z,30.20
2023-02-27T14:07:30.489Z,30.25
2023-02-27T14:10:37.220Z,30.33
2023-02-27T14:13:50.094Z,30.52
2023-02-27T14:16:53.813Z,33.91
2023-02-27T14:19:59.296Z,36.48
2023-02-27T14:23:27.763Z,38.67
2023-02-27T14:26:30.838Z,40.19
2023-02-27T14:29:35.389Z,41.52
2023-02-27T14:32:38.537Z,44.58
2023-02-27T14:35:46.325Z,43.21
2023-02-27T14:38:50.795Z,39.71
2023-02-27T14:42:20.340Z,35.85
2023-02-27T14:45:25.226Z,29.57
2023-02-27T14:48:29.124Z,33.74
2023-02-27T14:51:34.978Z,29.09
2023-02-27T14:54:38.314Z,28.93
2023-02-27T14:57:51.960Z,31.24
2023-02-27T15:01:11.607Z,29.89
2023-02-27T15:04:18.575Z,29.25
2023-02-27T15:07:24.904Z,29.20
2023-02-27T15:10:31.237Z,31.74
2023-02-27T15:13:39.642Z,28.77
2023-02-27T15:16:43.091Z,32.25
2023-02-27T15:19:58.359Z,28.71
2023-02-27T15:23:04.414Z,26.64
2023-02-27T15:26:10.577Z,24.96
2023-02-27T15:29:22.284Z,23.85
2023-02-27T15:32:27.984Z,25.09
2023-02-27T15:35:36.013Z,26.63
2023-02-27T15:38:39.291Z,30.50
2023-02-27T15:41:45.128Z,25.90
2023-02-27T15:44:48.728Z,25.51
2023-02-27T15:47:51.876Z,26.65
2023-02-27T15:50:59.526Z,25.79
2023-02-27T15:54:04.519Z,25.96
2023-02-27T15:57:08.636Z,27.15
2023-02-27T16:00:15.458Z,28.62
2023-02-27T16:03:22.650Z,32.83
2023-02-27T16:06:32.539Z,30.78
2023-02-27T16:09:37.779Z,32.36
2023-02-27T16:12:43.292Z,33.82
2023-02-27T16:15:59.309Z,36.49
2023-02-27T16:19:27.085Z,39.04
2023-02-27T16:22:30.766Z,40.11
2023-02-27T16:25:33.920Z,42.80
2023-02-27T16:29:07.330Z,44.61
2023-02-27T16:32:27.949Z,45.75
2023-02-27T16:35:35.484Z,47.91
2023-02-27T16:38:39.314Z,48.54
2023-02-27T16:41:44.325Z,50.53
2023-02-27T16:44:47.575Z,51.46
2023-02-27T16:48:00.230Z,51.57
2023-02-27T16:51:04.287Z,53.22
2023-02-27T16:54:11.225Z,53.52
2023-02-27T16:57:14.493Z,54.37
2023-02-27T17:00:19.835Z,55.00
2023-02-27T17:03:24.716Z,56.11
2023-02-27T17:06:30.581Z,56.48
2023-02-27T17:09:35.746Z,56.88
2023-02-27T17:12:44.211Z,57.59
2023-02-27T17:15:47.777Z,58.51
2023-02-27T17:18:53.091Z,58.18
2023-02-27T17:21:57.720Z,58.30
2023-02-27T17:25:01.506Z,58.93
2023-02-27T17:28:05.897Z,59.16
2023-02-27T17:31:11.059Z,59.61
2023-02-27T17:34:15.560Z,59.54
2023-02-27T17:37:19.323Z,59.93
2023-02-27T17:40:23.231Z,59.90
2023-02-27T17:43:27.658Z,59.87
2023-02-27T17:46:32.211Z,60.07
2023-02-27T17:49:40.679Z,60.67
2023-02-27T17:52:46.100Z,60.57
2023-02-27T17:55:53.789Z,60.81
2023-02-27T17:58:59.908Z,60.48
2023-02-27T18:02:07.438Z,60.93
2023-02-27T18:05:12.742Z,60.81
2023-02-27T18:08:16.641Z,60.92
2023-02-27T18:11:22.562Z,59.96
2023-02-27T18:14:26.206Z,59.59
2023-02-27T18:17:30.602Z,59.45
2023-02-27T18:20:34.195Z,59.20
2023-02-27T18:23:40.873Z,59.55
2023-02-27T18:26:45.610Z,58.98
2023-02-27T18:29:50.682Z,59.53
2023-02-27T18:32:59.375Z,60.27
2023-02-27T18:36:04.205Z,60.26
2023-02-27T18:39:09.202Z,60.79
2023-02-27T18:42:13.667Z,60.68
2023-02-27T18:45:17.028Z,60.94
2023-02-27T18:48:21.479Z,60.87
2023-02-27T18:51:26.581Z,60.71
2023-02-27T18:54:31.212Z,60.65
2023-02-27T18:57:35.781Z,60.75
2023-02-27T19:00:42.085Z,60.48
2023-02-27T19:03:47.508Z,60.19
2023-02-27T19:06:52.376Z,60.24
2023-02-27T19:09:56.858Z,60.53
2023-02-27T19:13:02.992Z,60.70
2023-02-27T19:16:08.668Z,60.94
2023-02-27T19:19:13.857Z,61.36
2023-02-27T19:22:18.671Z,61.37
2023-02-27T19:25:25.325Z,61.27
2023-02-27T19:28:29.538Z,59.76
2023-02-27T19:31:34.364Z,58.96
2023-02-27T19:34:38.763Z,59.01
2023-02-27T19:37:44.068Z,59.14
2023-02-27T19:40:47.452Z,59.30
2023-02-27T19:43:53.356Z,59.30
2023-02-27T19:46:57.970Z,59.09
2023-02-27T19:50:02.764Z,59.33
2023-02-27T19:53:07.250Z,59.02
2023-02-27T19:56:16.695Z,58.20
2023-02-27T19:59:25.295Z,59.57
2023-02-27T20:02:30.573Z,61.71
2023-02-27T20:05:38.863Z,62.13
2023-02-27T20:08:44.665Z,62.38
2023-02-27T20:11:56.896Z,63.71
2023-02-27T20:15:07.676Z,64.62
2023-02-27T20:18:13.217Z,64.32
2023-02-27T20:21:21.841Z,64.38
2023-02-27T20:24:27.937Z,64.89
2023-02-27T20:27:32.740Z,66.49
2023-02-27T20:30:40.997Z,67.01
2023-02-27T20:33:46.549Z,67.12
2023-02-27T20:36:53.037Z,67.08
2023-02-27T20:39:58.750Z,65.92
2023-02-27T20:43:07.101Z,65.17
2023-02-27T20:46:22.977Z,64.08
2023-02-27T20:49:27.647Z,63.42
2023-02-27T20:52:31.164Z,63.01
2023-02-27T20:55:35.159Z,62.41
2023-02-27T20:58:39.491Z,62.67
2023-02-27T21:01:51.722Z,62.12
2023-02-27T21:04:57.771Z,62.53
2023-02-27T21:08:01.912Z,63.44
2023-02-27T21:11:20.797Z,64.20
2023-02-27T21:14:24.140Z,65.40
2023-02-27T21:17:27.475Z,65.83
2023-02-27T21:20:31.312Z,66.87
2023-02-27T21:23:40.272Z,66.79
2023-02-27T21:26:44.301Z,66.90
2023-02-27T21:29:48.862Z,67.50
2023-02-27T21:32:52.455Z,67.59
2023-02-27T21:35:55.586Z,67.67
2023-02-27T21:39:01.334Z,67.11
2023-02-27T21:42:04.753Z,66.24
2023-02-27T21:45:08.580Z,66.95
2023-02-27T21:48:11.973Z,67.48
2023-02-27T21:51:15.283Z,66.39
2023-02-27T21:54:19.229Z,65.98
2023-02-27T21:57:23.131Z,62.99
2023-02-27T22:00:28.714Z,63.90
2023-02-27T22:03:34.546Z,65.22
2023-02-27T22:06:37.510Z,63.63
2023-02-27T22:09:42.100Z,63.69
2023-02-27T22:12:45.079Z,62.72
2023-02-27T22:15:48.859Z,60.92
2023-02-27T22:18:52.048Z,60.96
2023-02-27T22:21:55.446Z,62.65
2023-02-27T22:24:58.510Z,63.22
2023-02-27T22:28:02.002Z,62.29
2023-02-27T22:31:12.560Z,63.05
2023-02-27T22:34:18.710Z,61.28
2023-02-27T22:37:23.240Z,62.17
2023-02-27T22:40:29.622Z,61.30
2023-02-27T22:43:32.820Z,61.19
2023-02-27T22:46:38.586Z,60.75
2023-02-27T22:49:41.737Z,60.51
2023-02-27T22:52:44.903Z,61.39
2023-02-27T22:55:55.498Z,62.92
2023-02-27T22:58:59.323Z,62.88
2023-02-27T23:02:02.380Z,63.39
2023-02-27T23:05:05.946Z,63.67
2023-02-27T23:08:08.863Z,64.52
